• Join FlightAware (Why Join?)
  • Login
  • US Flag 
12:02PM EST


 

Airport Tracker/Info


-or-


 

Live Flight TrackerFlight Track Log ✈ N265JB ✈ 25-Apr-2012 ✈ KJFK - KJAX

Flight Track Log - Related Links

Times and Time Zones

All times are in EDT time to prevent confusion due to time zone crossing. See the N265JB flight status page for this flight to view local times or setup timezone preferences in your user account.

Time Position Orientation Groundspeed Altitude Reporting Facility
EDT Latitude Longitude Course Direction KTS MPH feet Rate Location/Type
01:46PM 40.6184 -73.7517 164° South  Level FlightAware Approximate
01:47PM 40.5221 -73.6609 305° West  Level FlightAware Approximate
01:48PM 40.5581 -73.7294 118° Southeast 202 232 3,300  Level New York Center
01:49PM 40.5225 -73.6433 131° Southeast 242 278 6,700 2,820 Climbing New York Center
01:50PM 40.4803 -73.5786 151° Southeast 258 297 9,000 2,160 Climbing New York Center
01:51PM 40.4025 -73.5211 150° Southeast 282 325 11,100 2,280 Climbing New York Center
01:52PM 40.3269 -73.4636 150° Southeast 328 377 13,600 2,340 Climbing New York Center
01:53PM 40.2306 -73.3917 149° Southeast 359 413 15,800 2,160 Climbing New York Center
01:54PM 40.1464 -73.3261 189° South 380 437 18,000 2,340 Climbing New York Center
01:55PM 40.0439 -73.3467 198° South 362 417 20,500 2,100 Climbing New York Center
01:56PM 39.9431 -73.3889 216° Southwest 360 414 22,200 1,020 Climbing New York Center
01:58PM 39.8264 -73.4978 223° Southwest 377 434 23,000 1,260 Climbing Washington Center
01:59PM 39.7428 -73.6000 226° Southwest 383 441 25,200 1,500 Climbing Washington Center
02:00PM 39.6672 -73.7019 224° Southwest 383 441 26,100 1,200 Climbing Washington Center
02:01PM 39.5856 -73.8036 224° Southwest 395 455 27,600 1,380 Climbing Washington Center
02:02PM 39.5017 -73.9078 224° Southwest 407 468 28,900 1,080 Climbing Washington Center
02:03PM 39.4175 -74.0147 220° Southwest 414 476 29,900 1,080 Climbing Washington Center
02:04PM 39.3250 -74.1133 220° Southwest 430 495 31,200 1,140 Climbing Washington Center
02:05PM 39.2344 -74.2117 221° Southwest 437 503 32,200 960 Climbing Washington Center
02:06PM 39.1400 -74.3178 219° Southwest 437 503 33,100 900 Climbing Washington Center
02:07PM 39.0469 -74.4156 220° Southwest 437 503 34,100 900 Climbing Washington Center
02:08PM 38.9542 -74.5158 220° Southwest 442 509 35,000 840 Climbing Washington Center
02:09PM 38.8614 -74.6158 219° Southwest 442 509 35,800 480 Climbing Washington Center
02:10PM 38.7642 -74.7158 220° Southwest 448 516 36,000 60 Climbing Washington Center
02:11PM 38.6689 -74.8178 221° Southwest 448 516 36,000  Level Washington Center
02:12PM 38.5758 -74.9225 219° Southwest 448 516 36,000  Level Washington Center
02:13PM 38.4783 -75.0242 218° Southwest 454 522 36,000  Level Washington Center
02:14PM 38.3828 -75.1203 213° Southwest 454 522 36,000  Level Washington Center
02:15PM 38.2892 -75.1975 213° Southwest 454 522 36,000  Level Washington Center
02:16PM 38.1811 -75.2853 213° Southwest 459 528 36,000  Level Washington Center
02:17PM 38.0769 -75.3728 213° Southwest 459 528 36,000  Level Washington Center
02:18PM 37.9728 -75.4600 214° Southwest 459 528 36,000  Level Washington Center
02:19PM 37.8667 -75.5497 214° Southwest 459 528 36,000  Level Washington Center
02:20PM 37.7622 -75.6392 213° Southwest 459 528 36,000  Level Washington Center
02:21PM 37.6581 -75.7231 214° Southwest 459 528 36,000  Level Washington Center
02:22PM 37.5536 -75.8119 214° Southwest 459 528 36,000  Level Washington Center
02:23PM 37.4492 -75.9006 213° Southwest 459 528 36,000  Level Washington Center
02:24PM 37.3425 -75.9864 213° Southwest 459 528 36,000  Level Washington Center
02:25PM 37.2336 -76.0744 213° Southwest 459 528 36,000  Level Washington Center
02:26PM 37.1269 -76.1622 212° Southwest 459 528 36,000  Level Washington Center
02:27PM 37.0158 -76.2500 213° Southwest 459 528 36,000  Level Washington Center
02:28PM 36.9089 -76.3375 213° Southwest 459 528 36,000  Level Washington Center
02:29PM 36.8000 -76.4272 214° Southwest 459 528 36,000  Level Washington Center
02:30PM 36.6928 -76.5167 213° Southwest 459 528 36,000  Level Washington Center
02:31PM 36.5817 -76.6058 212° Southwest 464 534 36,000  Level Washington Center
02:32PM 36.4722 -76.6922 213° Southwest 464 534 36,000  Level Washington Center
02:33PM 36.3589 -76.7836 213° Southwest 464 534 36,000  Level Washington Center
02:34PM 36.2472 -76.8719 213° Southwest 474 545 36,000  Level Washington Center
02:35PM 36.1378 -76.9603 212° Southwest 474 545 36,000  Level Washington Center
02:36PM 36.0242 -77.0483 213° Southwest 487 560 36,000  Level Washington Center
02:37PM 35.9167 -77.1358 212° Southwest 482 555 36,000  Level Washington Center
02:38PM 35.8050 -77.2208 213° Southwest 477 549 36,000  Level Washington Center
02:39PM 35.6953 -77.3081 212° Southwest 476 548 36,000  Level Washington Center
02:40PM 35.5856 -77.3928 213° Southwest 476 548 36,000  Level Washington Center
02:41PM 35.4756 -77.4794 213° Southwest 481 554 36,000  Level Washington Center
02:42PM 35.3550 -77.5758 220° Southwest 486 559 36,000  Level Washington Center
02:43PM 35.2575 -77.6753 220° Southwest 476 548 36,000  Level Washington Center
02:44PM 35.1575 -77.7769 220° Southwest 469 540 36,000  Level Washington Center
02:45PM 35.0575 -77.8808 220° Southwest 464 534 36,000  Level Washington Center
02:46PM 34.9597 -77.9819 221° Southwest 464 534 36,000  Level Washington Center
02:47PM 34.8636 -78.0828 222° Southwest 464 534 36,000  Level Washington Center
02:48PM 34.7717 -78.1836 219° Southwest 457 526 36,000 -360 Level Washington Center
02:49PM 34.6714 -78.2839 221° Southwest 457 526 35,300 -840 Descending Washington Center
02:50PM 34.5753 -78.3842 217° Southwest 462 532 34,400 -840 Descending Washington Center
02:50PM 34.5372 -78.4189 220° Southwest 466 536 34,000 -300 Descending Jacksonville Center
02:51PM 34.4186 -78.5408 220° Southwest 458 527 34,000  Level Jacksonville Center
02:52PM 34.3217 -78.6386 220° Southwest 463 533 34,000  Level Jacksonville Center
02:53PM 34.2228 -78.7389 221° Southwest 463 533 34,000  Level Jacksonville Center
02:54PM 34.1239 -78.8414 218° Southwest 469 540 34,000  Level Jacksonville Center
02:55PM 34.0247 -78.9361 220° Southwest 469 540 34,000  Level Jacksonville Center
02:56PM 33.9278 -79.0358 219° Southwest 469 540 34,000  Level Jacksonville Center
02:57PM 33.8283 -79.1325 220° Southwest 469 540 34,000  Level Jacksonville Center
02:58PM 33.7331 -79.2292 216° Southwest 464 534 34,000  Level Jacksonville Center
02:59PM 33.6417 -79.3103 221° Southwest 459 528 34,000  Level Jacksonville Center
03:00PM 33.5464 -79.4086 219° Southwest 459 528 34,000  Level Jacksonville Center
03:01PM 33.4467 -79.5047 219° Southwest 459 528 34,000  Level Jacksonville Center
03:02PM 33.3489 -79.5981 219° Southwest 459 528 34,000  Level Jacksonville Center
03:03PM 33.2492 -79.6961 219° Southwest 459 528 34,000 -480 Level Jacksonville Center
03:04PM 33.1514 -79.7914 218° Southwest 459 528 33,100 -960 Descending Jacksonville Center
03:05PM 33.0556 -79.8814 219° Southwest 459 528 32,100 -600 Descending Jacksonville Center
03:06PM 32.9556 -79.9764 218° Southwest 459 528 32,000 -60 Descending Jacksonville Center
03:07PM 32.8553 -80.0686 214° Southwest 459 528 32,000  Level Jacksonville Center
03:08PM 32.7486 -80.1533 213° Southwest 464 534 32,000 -540 Level Jacksonville Center
03:09PM 32.6397 -80.2381 212° Southwest 469 540 31,000 -1,020 Descending Jacksonville Center
03:10PM 32.5308 -80.3200 213° Southwest 469 540 30,000 -540 Descending Jacksonville Center
03:11PM 32.4239 -80.4019 214° Southwest 469 540 30,000  Level Jacksonville Center
03:12PM 32.3169 -80.4858 214° Southwest 469 540 30,000  Level Jacksonville Center
03:13PM 32.2039 -80.5750 213° Southwest 454 522 30,000  Level Jacksonville Center
03:14PM 32.0989 -80.6561 213° Southwest 459 528 30,000 -180 Level Jacksonville Center
03:15PM 32.0039 -80.7294 214° Southwest 459 528 29,700 -1,440 Descending Jacksonville Center
03:16PM 31.8906 -80.8178 213° Southwest 459 528 27,200 -2,400 Descending Jacksonville Center
03:17PM 31.7917 -80.8931 211° Southwest 445 512 25,000 -2,160 Descending Jacksonville Center
03:18PM 31.7028 -80.9561 213° Southwest 427 491 22,900 -2,100 Descending Jacksonville Center
03:19PM 31.6017 -81.0339 212° Southwest 404 465 20,900 -1,920 Descending Jacksonville Center
03:20PM 31.5211 -81.0939 213° Southwest 399 459 19,100 -1,980 Descending Jacksonville Center
03:21PM 31.4219 -81.1689 212° Southwest 399 459 17,000 -1,860 Descending Jacksonville Center
03:22PM 31.3392 -81.2289 212° Southwest 389 448 15,400 -1,800 Descending Jacksonville Center
03:23PM 31.2544 -81.2911 213° Southwest 383 441 13,500 -1,920 Descending Jacksonville Center
03:24PM 31.1697 -81.3556 212° Southwest 377 434 11,600 -1,800 Descending Jacksonville Center
03:25PM 31.0869 -81.4153 209° Southwest 366 421 10,000 -1,080 Descending Jacksonville Center
03:26PM 31.0414 -81.4450 190° South 339 390 10,000  Level Jacksonville Center
03:26PM 31.0017 -81.4528 188° South 347 399 10,000  Level Jacksonville Center
03:27PM 30.9517 -81.4608 194° South 313 360 10,000 -540 Level Jacksonville Center
03:28PM 30.8622 -81.4864 196° South 298 343 9,200 -1,320 Descending Jacksonville Center
03:29PM 30.7769 -81.5144 194° South 287 330 7,300 -1,260 Descending Jacksonville Center
03:30PM 30.7061 -81.5347 177° South 249 287 6,600 -1,200 Descending Jacksonville Center
03:31PM 30.6372 -81.5308 181° South 227 261 4,800 -1,740 Descending Jacksonville Center
03:32PM 30.5767 -81.5317 218° Southwest 215 247 2,900 -1,380 Descending Jacksonville Center
03:33PM 30.5331 -81.5708 253° West 180 207 1,800 -960 Descending Jacksonville Center
03:34PM 30.5211 -81.6169 249° West 149 171 1,000 -840 Descending Jacksonville Center
03:35PM 30.5089 -81.6533 249° West 129 148 400 -660 Descending Jacksonville Center